Time;durP1;ratioP1;P1;durP2;ratioP2;P2;SDS_P1;SDS_P2;PMS_P1;PMS_P2;Temp;Humidity;BMP_temperature;BMP_pressure;BME280_temperature;BME280_humidity;BME280_pressure;Samples;Min_cycle;Max_cycle;Signal;HPM_P1;HPM_P2
2022/11/05 00:10:31;;;;;;;26.35;17.02;;;;;;;;;;4981941;28;20122;-86
2022/11/05 00:18:27;;;;;;;28.83;17.75;;;;;;;;;;4978848;28;20038;-85
2022/11/05 00:20:53;;;;;;;31.40;20.05;;;;;;;;;;4976289;28;20042;-86
2022/11/05 00:26:05;;;;;;;33.95;20.98;;;;;;;;;;4976842;28;20038;-84
2022/11/05 00:28:32;;;;;;;40.00;25.85;;;;;;;;;;4974986;28;20018;-85
2022/11/05 00:31:02;;;;;;;43.88;27.75;;;;;;;;;;4975395;28;20058;-84
2022/11/05 00:33:28;;;;;;;37.30;25.73;;;;;;;;;;4975097;28;20023;-83
2022/11/05 00:35:54;;;;;;;39.95;25.02;;;;;;;;;;4975019;28;20488;-84
2022/11/05 00:38:20;;;;;;;35.45;23.05;;;;;;;;;;4974960;28;20026;-84
2022/11/05 00:40:47;;;;;;;35.22;22.33;;;;;;;;;;4974366;28;20105;-84
2022/11/05 00:45:57;;;;;;;36.22;23.10;;;;;;;;;;4956942;29;20035;-84
2022/11/05 00:51:08;;;;;;;44.55;29.83;;;;;;;;;;4956833;29;20054;-84
2022/11/05 00:53:35;;;;;;;44.88;27.58;;;;;;;;;;4955521;29;20042;-85
2022/11/05 00:56:01;;;;;;;43.45;24.75;;;;;;;;;;4955651;29;20032;-84
2022/11/05 00:58:28;;;;;;;43.97;27.73;;;;;;;;;;4955611;29;20358;-83
2022/11/05 01:00:55;;;;;;;47.17;29.63;;;;;;;;;;4955327;29;20027;-85
2022/11/05 01:03:23;;;;;;;35.53;23.63;;;;;;;;;;4955273;29;20019;-84
2022/11/05 01:05:50;;;;;;;35.30;22.13;;;;;;;;;;4955539;29;20054;-83
2022/11/05 01:08:18;;;;;;;34.72;21.65;;;;;;;;;;4955496;29;20074;-83
2022/11/05 01:10:48;;;;;;;34.90;22.10;;;;;;;;;;4955296;29;20024;-84
2022/11/05 01:13:19;;;;;;;36.97;23.92;;;;;;;;;;4956485;28;20058;-84
2022/11/05 01:15:45;;;;;;;52.90;34.88;;;;;;;;;;4974634;28;20528;-84
2022/11/05 01:18:12;;;;;;;64.72;43.47;;;;;;;;;;4974780;28;20037;-84
2022/11/05 01:20:38;;;;;;;56.10;35.05;;;;;;;;;;4974514;28;20476;-83
2022/11/05 01:23:04;;;;;;;47.28;32.63;;;;;;;;;;4974558;28;20086;-85
2022/11/05 01:25:30;;;;;;;40.28;24.65;;;;;;;;;;4974612;28;20460;-85
2022/11/05 01:27:56;;;;;;;45.30;27.85;;;;;;;;;;4974606;28;20026;-84
2022/11/05 01:30:22;;;;;;;44.28;27.90;;;;;;;;;;4974628;28;20077;-85
2022/11/05 01:32:48;;;;;;;52.35;31.45;;;;;;;;;;4974494;28;20106;-84
2022/11/05 01:35:16;;;;;;;46.35;27.60;;;;;;;;;;4974485;28;20034;-84
2022/11/05 01:37:42;;;;;;;61.08;36.47;;;;;;;;;;4973907;28;20035;-84
2022/11/05 01:40:11;;;;;;;64.65;41.72;;;;;;;;;;4975286;28;20079;-83
2022/11/05 01:42:37;;;;;;;61.78;35.92;;;;;;;;;;4974394;28;20026;-85
2022/11/05 01:45:06;;;;;;;56.25;33.65;;;;;;;;;;4974590;28;20035;-85
2022/11/05 01:47:38;;;;;;;56.65;30.67;;;;;;;;;;4974595;28;20023;-84
2022/11/05 01:50:24;;;;;;;47.05;28.48;;;;;;;;;;4974343;28;20113;-86
2022/11/05 01:52:52;;;;;;;40.45;25.23;;;;;;;;;;4978118;28;20027;-84
2022/11/05 01:55:23;;;;;;;31.60;21.88;;;;;;;;;;4978214;28;20027;-83
2022/11/05 01:57:50;;;;;;;29.17;20.13;;;;;;;;;;4978439;28;20118;-84
2022/11/05 02:00:16;;;;;;;32.83;21.42;;;;;;;;;;4979409;28;20039;-84
2022/11/05 02:02:43;;;;;;;32.92;20.80;;;;;;;;;;4978341;28;20058;-83
2022/11/05 02:05:09;;;;;;;28.45;20.13;;;;;;;;;;4978354;28;20088;-82
2022/11/05 02:07:35;;;;;;;31.23;20.42;;;;;;;;;;4985627;28;20023;-82
2022/11/05 02:10:09;;;;;;;32.40;20.30;;;;;;;;;;4983668;28;20034;-84
2022/11/05 02:12:37;;;;;;;34.47;20.30;;;;;;;;;;4978125;28;20404;-84
2022/11/05 02:15:03;;;;;;;35.85;23.60;;;;;;;;;;4977761;28;20129;-83
2022/11/05 02:17:51;;;;;;;35.92;19.58;;;;;;;;;;4977850;28;20022;-85
2022/11/05 02:20:17;;;;;;;31.52;21.10;;;;;;;;;;4978237;28;20019;-85
2022/11/05 02:23:01;;;;;;;29.55;20.40;;;;;;;;;;4978608;28;20037;-84
2022/11/05 02:25:30;;;;;;;31.30;19.55;;;;;;;;;;4977730;28;20027;-84
2022/11/05 02:28:03;;;;;;;28.48;18.20;;;;;;;;;;4977852;28;20045;-84
2022/11/05 02:30:41;;;;;;;30.58;20.08;;;;;;;;;;4977800;28;20035;-84
2022/11/05 02:33:11;;;;;;;52.40;32.65;;;;;;;;;;4977369;28;20038;-85
2022/11/05 02:35:37;;;;;;;38.08;24.35;;;;;;;;;;4976643;28;20034;-84
2022/11/05 02:38:12;;;;;;;42.60;25.23;;;;;;;;;;4977998;28;20235;-84
2022/11/05 02:40:48;;;;;;;29.95;19.98;;;;;;;;;;4977111;28;20053;-85
2022/11/05 02:43:17;;;;;;;25.63;18.00;;;;;;;;;;4977350;28;20041;-86
2022/11/05 02:45:52;;;;;;;23.63;17.48;;;;;;;;;;4979567;28;20030;-85
2022/11/05 02:48:18;;;;;;;23.70;15.82;;;;;;;;;;4984496;28;20031;-84
2022/11/05 02:50:47;;;;;;;23.15;15.32;;;;;;;;;;4989977;28;20015;-83
2022/11/05 02:53:34;;;;;;;20.08;15.02;;;;;;;;;;4990560;28;20079;-85
2022/11/05 02:56:03;;;;;;;25.27;15.20;;;;;;;;;;4988628;28;20023;-85
2022/11/05 02:58:29;;;;;;;22.60;15.27;;;;;;;;;;4986490;28;20137;-86
2022/11/05 03:00:56;;;;;;;25.00;16.27;;;;;;;;;;4989337;28;20023;-84
2022/11/05 03:03:30;;;;;;;21.27;15.95;;;;;;;;;;4989989;28;20098;-83
2022/11/05 03:06:11;;;;;;;23.35;14.52;;;;;;;;;;4989192;28;20058;-86
2022/11/05 03:08:37;;;;;;;23.50;14.63;;;;;;;;;;4988926;28;20025;-84
2022/11/05 03:11:11;;;;;;;22.35;14.80;;;;;;;;;;4985223;28;20058;-85
2022/11/05 03:13:43;;;;;;;25.80;15.98;;;;;;;;;;4977749;28;20041;-86
2022/11/05 03:16:15;;;;;;;20.92;14.80;;;;;;;;;;4977906;28;20019;-85
2022/11/05 03:18:59;;;;;;;24.50;15.95;;;;;;;;;;4977564;28;20027;-85
2022/11/05 03:21:34;;;;;;;22.48;16.92;;;;;;;;;;4977486;28;20122;-85
2022/11/05 03:24:09;;;;;;;24.88;15.50;;;;;;;;;;4977621;28;20093;-87
2022/11/05 03:26:40;;;;;;;26.50;16.50;;;;;;;;;;4977207;28;20469;-86
2022/11/05 03:29:08;;;;;;;25.48;17.20;;;;;;;;;;4976889;28;20065;-86
2022/11/05 03:31:35;;;;;;;23.75;16.05;;;;;;;;;;4976875;28;20023;-86
2022/11/05 03:34:02;;;;;;;21.83;15.32;;;;;;;;;;4976722;28;20041;-85
2022/11/05 03:36:34;;;;;;;23.70;15.25;;;;;;;;;;4977301;28;20019;-86
2022/11/05 03:39:02;;;;;;;25.70;15.15;;;;;;;;;;4977639;28;20050;-85
2022/11/05 03:41:29;;;;;;;23.83;15.93;;;;;;;;;;4977741;28;20114;-86
2022/11/05 03:43:57;;;;;;;22.15;15.40;;;;;;;;;;4977811;28;20026;-86
2022/11/05 03:46:31;;;;;;;22.50;14.75;;;;;;;;;;4979020;28;20022;-86
2022/11/05 03:48:58;;;;;;;24.45;14.60;;;;;;;;;;4978497;28;20073;-85
2022/11/05 03:51:43;;;;;;;25.63;14.23;;;;;;;;;;4978842;28;20027;-86
2022/11/05 03:54:10;;;;;;;21.73;14.32;;;;;;;;;;4976945;28;20039;-86
2022/11/05 03:56:48;;;;;;;22.58;14.55;;;;;;;;;;4976140;28;20026;-86
2022/11/05 03:59:14;;;;;;;20.58;13.55;;;;;;;;;;4976548;28;20027;-86
2022/11/05 04:01:41;;;;;;;22.88;13.32;;;;;;;;;;4976413;28;20031;-86
2022/11/05 04:04:08;;;;;;;25.25;12.88;;;;;;;;;;4975836;28;20067;-85
2022/11/05 04:14:49;;;;;;;24.55;16.33;;;;;;;;;;4976187;28;20353;-85
2022/11/05 04:17:15;;;;;;;25.30;16.55;;;;;;;;;;4975854;28;20182;-85
2022/11/05 04:25:14;;;;;;;19.83;14.48;;;;;;;;;;4976700;28;20046;-84
2022/11/05 04:27:40;;;;;;;20.35;13.68;;;;;;;;;;4975791;28;20023;-84
2022/11/05 04:30:18;;;;;;;24.25;13.63;;;;;;;;;;4975947;28;20057;-85
2022/11/05 04:32:58;;;;;;;20.63;13.75;;;;;;;;;;4975916;28;20023;-85
2022/11/05 04:35:25;;;;;;;25.80;16.98;;;;;;;;;;4975891;28;20049;-85
2022/11/05 04:37:51;;;;;;;28.35;15.63;;;;;;;;;;4975353;28;20109;-85
2022/11/05 04:40:17;;;;;;;26.58;15.75;;;;;;;;;;4975506;28;20158;-84
2022/11/05 04:42:43;;;;;;;28.05;14.23;;;;;;;;;;4976870;28;20054;-84
2022/11/05 04:45:09;;;;;;;26.52;15.10;;;;;;;;;;4974867;28;20034;-85
2022/11/05 04:47:35;;;;;;;24.08;16.05;;;;;;;;;;4975750;28;20050;-85
2022/11/05 04:50:01;;;;;;;28.77;17.15;;;;;;;;;;4975301;28;20085;-86
2022/11/05 04:52:27;;;;;;;25.67;16.48;;;;;;;;;;4975637;28;20023;-86
2022/11/05 04:54:53;;;;;;;26.73;16.45;;;;;;;;;;4975338;28;20133;-84
2022/11/05 04:57:20;;;;;;;27.58;18.52;;;;;;;;;;4975682;28;20539;-84
2022/11/05 04:59:48;;;;;;;32.75;18.30;;;;;;;;;;4974933;28;20031;-85
2022/11/05 05:02:14;;;;;;;24.58;16.55;;;;;;;;;;4974957;28;20026;-85
2022/11/05 05:04:40;;;;;;;23.67;15.55;;;;;;;;;;4975573;28;20361;-85
2022/11/05 05:07:07;;;;;;;28.25;17.40;;;;;;;;;;4974958;28;20080;-85
2022/11/05 05:09:33;;;;;;;26.38;17.92;;;;;;;;;;4975500;28;20033;-85
2022/11/05 05:12:00;;;;;;;69.05;35.85;;;;;;;;;;4975708;28;20030;-85
2022/11/05 05:14:26;;;;;;;39.42;22.80;;;;;;;;;;4975881;28;20047;-84
2022/11/05 05:16:52;;;;;;;29.00;19.02;;;;;;;;;;4976912;28;20023;-84
2022/11/05 05:19:18;;;;;;;36.30;22.13;;;;;;;;;;4977757;28;20022;-86
2022/11/05 05:21:44;;;;;;;40.10;23.75;;;;;;;;;;4976257;28;20027;-83
2022/11/05 05:24:10;;;;;;;28.00;19.33;;;;;;;;;;4978787;28;20031;-83
2022/11/05 05:26:37;;;;;;;29.50;17.48;;;;;;;;;;4979749;28;20113;-83
2022/11/05 05:29:04;;;;;;;23.67;16.20;;;;;;;;;;4979561;28;20098;-84
2022/11/05 05:31:30;;;;;;;28.52;17.25;;;;;;;;;;4979766;28;20027;-84
2022/11/05 05:33:57;;;;;;;29.23;18.95;;;;;;;;;;4979018;28;20035;-83
2022/11/05 05:36:23;;;;;;;35.30;20.77;;;;;;;;;;4979244;28;20034;-84
2022/11/05 05:38:49;;;;;;;33.72;22.02;;;;;;;;;;4975997;28;20140;-85
2022/11/05 05:41:16;;;;;;;38.65;24.17;;;;;;;;;;4975065;28;20037;-85
2022/11/05 05:43:42;;;;;;;59.92;36.65;;;;;;;;;;4975709;28;20027;-87
2022/11/05 05:46:10;;;;;;;51.03;34.60;;;;;;;;;;4974977;28;20023;-85
2022/11/05 05:48:37;;;;;;;51.35;32.90;;;;;;;;;;4974673;28;20027;-86
2022/11/05 05:51:04;;;;;;;58.00;37.85;;;;;;;;;;4974501;28;20034;-85
2022/11/05 05:53:30;;;;;;;43.20;28.52;;;;;;;;;;4974582;28;20113;-85
2022/11/05 05:55:57;;;;;;;47.13;29.80;;;;;;;;;;4974405;28;20019;-85
2022/11/05 05:58:25;;;;;;;32.55;23.35;;;;;;;;;;4974457;28;20050;-85
2022/11/05 06:00:51;;;;;;;32.75;19.95;;;;;;;;;;4974429;28;20498;-85
2022/11/05 06:03:17;;;;;;;28.75;18.98;;;;;;;;;;4974552;28;20022;-84
2022/11/05 06:05:43;;;;;;;36.17;20.35;;;;;;;;;;4974432;28;20031;-86
2022/11/05 06:08:10;;;;;;;27.27;19.15;;;;;;;;;;4974560;28;20035;-86
2022/11/05 06:10:36;;;;;;;35.40;20.00;;;;;;;;;;4974619;28;20113;-86
2022/11/05 06:13:03;;;;;;;27.38;19.55;;;;;;;;;;4974277;28;20023;-84
2022/11/05 06:15:29;;;;;;;24.90;16.73;;;;;;;;;;4975627;28;20033;-86
2022/11/05 06:17:55;;;;;;;26.80;18.17;;;;;;;;;;4973945;28;20049;-83
2022/11/05 06:20:21;;;;;;;25.75;17.00;;;;;;;;;;4974015;28;20019;-85
2022/11/05 06:22:57;;;;;;;26.42;17.38;;;;;;;;;;4974454;28;20023;-86
2022/11/05 06:25:24;;;;;;;27.45;17.85;;;;;;;;;;4974239;28;20123;-88
2022/11/05 06:27:50;;;;;;;22.42;16.58;;;;;;;;;;4973607;28;20119;-85
2022/11/05 06:30:16;;;;;;;34.60;19.27;;;;;;;;;;4973984;28;20027;-84
2022/11/05 06:32:42;;;;;;;32.28;18.25;;;;;;;;;;4974005;28;20027;-85
2022/11/05 06:35:09;;;;;;;31.70;20.35;;;;;;;;;;4974043;28;20031;-85
2022/11/05 06:37:35;;;;;;;27.95;17.65;;;;;;;;;;4975419;28;20029;-84
2022/11/05 06:40:01;;;;;;;26.13;17.73;;;;;;;;;;4977148;28;20054;-85
2022/11/05 06:42:27;;;;;;;24.83;16.98;;;;;;;;;;4977761;28;20031;-85
2022/11/05 06:44:53;;;;;;;28.23;17.92;;;;;;;;;;4977275;28;20116;-84
2022/11/05 06:47:19;;;;;;;30.23;19.27;;;;;;;;;;4977763;28;20026;-84
2022/11/05 06:49:45;;;;;;;33.40;21.23;;;;;;;;;;4977190;28;20034;-84
2022/11/05 06:52:12;;;;;;;32.70;19.50;;;;;;;;;;4977594;28;20078;-86
2022/11/05 06:54:39;;;;;;;30.27;20.42;;;;;;;;;;4983539;28;20062;-86
2022/11/05 06:57:08;;;;;;;37.38;23.50;;;;;;;;;;4983667;28;20031;-83
2022/11/05 06:59:34;;;;;;;40.08;27.42;;;;;;;;;;4978970;28;20117;-85
2022/11/05 07:02:00;;;;;;;48.25;31.50;;;;;;;;;;4977836;28;20026;-83
2022/11/05 07:04:26;;;;;;;44.88;28.20;;;;;;;;;;4977343;28;20031;-84
2022/11/05 07:06:52;;;;;;;42.15;25.73;;;;;;;;;;4977245;28;20130;-85
2022/11/05 07:09:18;;;;;;;40.88;26.15;;;;;;;;;;4977262;28;20457;-87
2022/11/05 07:11:45;;;;;;;37.75;25.48;;;;;;;;;;4977200;28;20026;-84
2022/11/05 07:14:11;;;;;;;33.58;22.50;;;;;;;;;;4977213;28;20066;-86
2022/11/05 07:16:37;;;;;;;35.72;25.23;;;;;;;;;;4977489;28;20021;-84
2022/11/05 07:19:03;;;;;;;37.10;24.38;;;;;;;;;;4976794;28;20596;-85
2022/11/05 07:21:29;;;;;;;40.08;26.45;;;;;;;;;;4976730;28;20031;-85
2022/11/05 07:23:55;;;;;;;42.95;27.25;;;;;;;;;;4977057;28;20026;-85
2022/11/05 07:26:21;;;;;;;41.25;26.08;;;;;;;;;;4976893;28;20015;-85
2022/11/05 07:28:47;;;;;;;41.63;27.58;;;;;;;;;;4976932;28;20126;-85
2022/11/05 07:31:13;;;;;;;45.20;28.20;;;;;;;;;;4977074;28;20481;-85
2022/11/05 07:33:39;;;;;;;47.08;34.00;;;;;;;;;;4977784;28;20031;-86
2022/11/05 07:36:06;;;;;;;66.78;39.03;;;;;;;;;;4973399;28;20074;-85
2022/11/05 07:38:32;;;;;;;62.55;35.15;;;;;;;;;;4957249;28;20473;-84
2022/11/05 07:41:01;;;;;;;60.35;35.30;;;;;;;;;;4957312;29;20031;-86
2022/11/05 07:43:27;;;;;;;52.85;34.20;;;;;;;;;;4957542;29;20103;-89
2022/11/05 07:45:53;;;;;;;65.32;37.47;;;;;;;;;;4962881;28;20029;-86
2022/11/05 07:48:19;;;;;;;57.47;38.35;;;;;;;;;;4956568;28;20469;-88
2022/11/05 07:50:45;;;;;;;57.35;37.60;;;;;;;;;;4956993;29;20031;-85
2022/11/05 07:53:12;;;;;;;53.72;35.75;;;;;;;;;;4957166;29;20469;-86
2022/11/05 07:55:42;;;;;;;39.63;26.17;;;;;;;;;;4957277;29;20023;-86
2022/11/05 07:58:09;;;;;;;44.58;29.10;;;;;;;;;;4957248;29;20077;-86
2022/11/05 08:00:35;;;;;;;42.65;27.77;;;;;;;;;;4956925;29;20030;-86
2022/11/05 08:03:09;;;;;;;34.22;21.55;;;;;;;;;;4956695;29;20024;-85
2022/11/05 08:05:37;;;;;;;41.92;23.55;;;;;;;;;;4974850;28;20023;-88
2022/11/05 08:08:04;;;;;;;30.52;20.02;;;;;;;;;;4976336;28;20038;-84
2022/11/05 08:10:31;;;;;;;36.15;23.17;;;;;;;;;;4977069;28;20023;-88
2022/11/05 08:12:57;;;;;;;38.67;22.92;;;;;;;;;;4976972;28;20023;-85
2022/11/05 08:15:23;;;;;;;38.65;23.00;;;;;;;;;;4976372;28;20169;-89
2022/11/05 08:17:49;;;;;;;37.40;26.90;;;;;;;;;;4975545;28;20082;-86
2022/11/05 08:20:16;;;;;;;32.20;23.17;;;;;;;;;;4975298;28;20027;-85
2022/11/05 08:22:45;;;;;;;36.58;21.98;;;;;;;;;;4975945;28;20428;-87
2022/11/05 08:25:12;;;;;;;30.98;21.92;;;;;;;;;;4978030;28;20365;-86
2022/11/05 08:27:38;;;;;;;34.83;24.65;;;;;;;;;;4973819;28;20034;-84
2022/11/05 08:30:05;;;;;;;41.20;23.95;;;;;;;;;;4979496;28;20121;-86
2022/11/05 08:32:31;;;;;;;27.25;19.30;;;;;;;;;;4975760;28;20435;-86
2022/11/05 08:34:57;;;;;;;27.35;17.63;;;;;;;;;;4975561;28;20031;-89
2022/11/05 08:37:23;;;;;;;22.27;15.88;;;;;;;;;;4975206;28;20071;-85
2022/11/05 08:39:50;;;;;;;22.38;15.38;;;;;;;;;;4975121;28;20492;-88
2022/11/05 08:42:16;;;;;;;31.52;20.75;;;;;;;;;;4975326;28;20027;-88
2022/11/05 08:44:42;;;;;;;24.77;18.20;;;;;;;;;;4975429;28;20037;-87
2022/11/05 08:47:15;;;;;;;23.92;17.77;;;;;;;;;;4976106;28;20030;-87
2022/11/05 08:49:51;;;;;;;21.38;15.60;;;;;;;;;;4975092;28;20023;-87
2022/11/05 08:52:19;;;;;;;19.80;13.90;;;;;;;;;;4968597;28;20023;-87
2022/11/05 08:54:46;;;;;;;19.98;15.23;;;;;;;;;;4975444;28;20054;-88
2022/11/05 08:57:12;;;;;;;22.92;14.75;;;;;;;;;;4975688;28;20030;-87
2022/11/05 08:59:38;;;;;;;25.73;18.25;;;;;;;;;;4974747;28;20029;-87
2022/11/05 09:02:04;;;;;;;20.35;13.70;;;;;;;;;;4975066;28;20080;-87
2022/11/05 09:04:30;;;;;;;25.90;18.30;;;;;;;;;;4975035;28;20046;-87
2022/11/05 09:06:56;;;;;;;23.83;16.60;;;;;;;;;;4974626;28;20424;-87
2022/11/05 09:09:22;;;;;;;28.88;17.75;;;;;;;;;;4969322;28;20015;-83
2022/11/05 09:11:48;;;;;;;22.75;12.07;;;;;;;;;;4963745;28;20069;-84
2022/11/05 09:14:14;;;;;;;26.92;12.98;;;;;;;;;;4974182;28;20031;-84
2022/11/05 09:16:42;;;;;;;16.65;11.32;;;;;;;;;;4974333;28;20023;-84
2022/11/05 09:19:08;;;;;;;19.17;11.50;;;;;;;;;;4974128;28;20105;-84
2022/11/05 09:21:34;;;;;;;18.90;12.93;;;;;;;;;;4974100;28;20034;-83
2022/11/05 09:24:00;;;;;;;20.55;12.80;;;;;;;;;;4974029;28;20058;-85
2022/11/05 09:26:26;;;;;;;25.08;12.82;;;;;;;;;;4974038;28;20023;-84
2022/11/05 09:28:52;;;;;;;45.80;15.80;;;;;;;;;;4974843;28;20109;-84
2022/11/05 09:31:19;;;;;;;102.40;30.10;;;;;;;;;;4975680;28;20070;-81
2022/11/05 09:33:45;;;;;;;68.75;21.63;;;;;;;;;;4973674;28;20038;-81
2022/11/05 09:36:11;;;;;;;26.60;15.38;;;;;;;;;;4973616;28;20443;-82
2022/11/05 09:38:37;;;;;;;23.50;12.80;;;;;;;;;;4973434;28;20027;-82
2022/11/05 09:41:22;;;;;;;25.55;12.15;;;;;;;;;;4973694;28;20023;-81
2022/11/05 09:43:49;;;;;;;22.75;12.93;;;;;;;;;;4973835;28;20539;-82
2022/11/05 09:46:22;;;;;;;23.40;12.23;;;;;;;;;;4974356;28;20030;-82
2022/11/05 09:48:50;;;;;;;21.90;13.13;;;;;;;;;;4973910;28;20033;-79
2022/11/05 09:51:16;;;;;;;18.67;11.80;;;;;;;;;;4973879;28;20022;-85
2022/11/05 09:53:44;;;;;;;15.10;10.98;;;;;;;;;;4973467;28;20030;-82
2022/11/05 09:56:18;;;;;;;16.83;11.93;;;;;;;;;;4973685;28;20023;-84
2022/11/05 09:58:47;;;;;;;20.35;13.38;;;;;;;;;;4973785;28;20019;-82
2022/11/05 10:01:17;;;;;;;22.23;13.43;;;;;;;;;;4973794;28;20078;-84
2022/11/05 10:03:45;;;;;;;16.50;12.40;;;;;;;;;;4973772;28;20109;-81
2022/11/05 10:09:27;;;;;;;17.10;11.88;;;;;;;;;;4933958;29;20127;-85
2022/11/05 10:12:12;;;;;;;22.05;12.00;;;;;;;;;;4975041;28;20018;-83
2022/11/05 10:14:41;;;;;;;17.33;12.05;;;;;;;;;;4976904;28;20062;-83
2022/11/05 10:17:15;;;;;;;17.30;11.20;;;;;;;;;;4976591;28;20023;-83
2022/11/05 10:19:50;;;;;;;20.35;13.38;;;;;;;;;;4976885;28;20027;-82
2022/11/05 10:22:17;;;;;;;20.50;11.98;;;;;;;;;;5004509;28;20015;-81
2022/11/05 10:24:45;;;;;;;19.60;11.52;;;;;;;;;;4976560;28;20049;-81
2022/11/05 10:27:17;;;;;;;18.85;11.27;;;;;;;;;;4976502;28;20046;-80
2022/11/05 10:29:44;;;;;;;15.77;11.55;;;;;;;;;;4976256;28;20435;-80
2022/11/05 10:32:12;;;;;;;24.52;12.38;;;;;;;;;;4976600;28;20062;-82
2022/11/05 10:34:38;;;;;;;18.67;10.77;;;;;;;;;;4976130;28;20034;-80
2022/11/05 10:37:05;;;;;;;20.23;12.25;;;;;;;;;;4976145;28;20065;-81
2022/11/05 10:39:32;;;;;;;20.52;12.55;;;;;;;;;;4976897;28;20057;-85
2022/11/05 10:42:10;;;;;;;18.80;12.52;;;;;;;;;;4977290;28;20038;-85
2022/11/05 10:44:36;;;;;;;19.05;12.25;;;;;;;;;;4976986;28;20129;-84
2022/11/05 10:47:21;;;;;;;20.60;12.63;;;;;;;;;;4976720;28;20511;-83
2022/11/05 10:50:00;;;;;;;20.70;11.95;;;;;;;;;;4992392;28;20071;-83
2022/11/05 10:52:30;;;;;;;20.95;11.95;;;;;;;;;;4976678;28;20022;-83
2022/11/05 10:54:58;;;;;;;18.08;11.63;;;;;;;;;;4976681;28;20031;-85
2022/11/05 10:57:29;;;;;;;16.95;13.00;;;;;;;;;;4976941;28;20033;-82
2022/11/05 11:00:22;;;;;;;19.63;12.90;;;;;;;;;;4976808;28;20131;-83
2022/11/05 11:02:53;;;;;;;22.80;11.85;;;;;;;;;;4976765;28;20023;-82
2022/11/05 11:05:40;;;;;;;20.80;12.40;;;;;;;;;;4976477;28;20477;-84
2022/11/05 11:08:06;;;;;;;25.15;14.38;;;;;;;;;;4976507;28;20027;-82
2022/11/05 11:10:35;;;;;;;28.95;20.52;;;;;;;;;;4976136;28;20376;-84
2022/11/05 11:13:02;;;;;;;20.95;14.05;;;;;;;;;;4976755;28;20460;-82
2022/11/05 11:15:34;;;;;;;24.15;17.85;;;;;;;;;;4975995;28;20035;-84
2022/11/05 11:18:17;;;;;;;26.50;19.45;;;;;;;;;;4976244;28;20054;-82
2022/11/05 11:20:45;;;;;;;22.20;14.95;;;;;;;;;;4976554;28;20110;-84
2022/11/05 11:23:13;;;;;;;21.77;16.77;;;;;;;;;;4975965;28;20401;-82
2022/11/05 11:25:47;;;;;;;29.05;15.77;;;;;;;;;;4976146;28;20019;-82
2022/11/05 11:28:24;;;;;;;22.45;14.77;;;;;;;;;;4976860;28;20030;-83
2022/11/05 11:30:53;;;;;;;19.30;12.55;;;;;;;;;;4976587;28;20495;-83
2022/11/05 11:33:22;;;;;;;20.35;12.75;;;;;;;;;;4976434;28;20443;-82
2022/11/05 11:35:48;;;;;;;17.88;11.18;;;;;;;;;;4977356;28;20053;-83
2022/11/05 11:38:15;;;;;;;14.27;11.00;;;;;;;;;;4977734;28;20097;-84
2022/11/05 11:40:41;;;;;;;18.55;11.45;;;;;;;;;;4956638;29;20047;-87
2022/11/05 11:43:26;;;;;;;17.65;11.65;;;;;;;;;;4957829;29;20031;-81
2022/11/05 11:45:53;;;;;;;18.40;11.27;;;;;;;;;;4973585;28;20433;-82
2022/11/05 11:48:22;;;;;;;19.00;14.32;;;;;;;;;;4972182;28;20046;-85
2022/11/05 11:50:48;;;;;;;16.58;12.70;;;;;;;;;;4971797;28;20475;-82
2022/11/05 11:53:20;;;;;;;20.17;12.10;;;;;;;;;;4972373;28;20118;-85
2022/11/05 11:55:56;;;;;;;20.20;13.50;;;;;;;;;;4972820;28;20034;-82
2022/11/05 11:58:37;;;;;;;16.58;13.13;;;;;;;;;;4972358;28;20059;-81
2022/11/05 12:01:15;;;;;;;18.55;12.15;;;;;;;;;;4972262;28;20497;-82
2022/11/05 12:03:41;;;;;;;22.02;12.98;;;;;;;;;;4972690;28;20027;-81
2022/11/05 12:06:26;;;;;;;22.67;14.13;;;;;;;;;;4972895;28;20023;-81
2022/11/05 12:09:02;;;;;;;25.83;14.35;;;;;;;;;;4972522;28;20397;-83
2022/11/05 12:11:31;;;;;;;18.10;12.80;;;;;;;;;;4972185;28;20034;-83
2022/11/05 12:14:17;;;;;;;24.42;13.57;;;;;;;;;;4971783;28;20167;-84
2022/11/05 12:17:02;;;;;;;17.70;12.98;;;;;;;;;;4971999;28;20073;-82
2022/11/05 12:19:28;;;;;;;24.23;12.77;;;;;;;;;;4982836;28;20074;-84
2022/11/05 12:22:33;;;;;;;21.45;13.35;;;;;;;;;;4974622;28;20026;-82
2022/11/05 12:24:59;;;;;;;28.90;21.65;;;;;;;;;;4894872;29;20077;-83
2022/11/05 12:27:43;;;;;;;24.17;17.90;;;;;;;;;;4894625;29;20035;-83
2022/11/05 12:30:20;;;;;;;29.92;15.90;;;;;;;;;;4949542;28;20039;-82
2022/11/05 12:32:48;;;;;;;26.45;20.30;;;;;;;;;;4955908;29;20041;-81
2022/11/05 12:35:26;;;;;;;30.08;22.17;;;;;;;;;;4955025;28;20039;-83
2022/11/05 12:37:52;;;;;;;22.38;18.08;;;;;;;;;;4972598;28;20053;-83
2022/11/05 12:40:19;;;;;;;20.27;13.75;;;;;;;;;;4974358;28;20042;-82
2022/11/05 12:43:03;;;;;;;27.02;13.23;;;;;;;;;;4976132;28;20457;-82
2022/11/05 12:45:37;;;;;;;19.75;12.32;;;;;;;;;;4974822;28;20019;-86
2022/11/05 12:48:09;;;;;;;23.33;14.65;;;;;;;;;;4974583;28;20046;-81
2022/11/05 12:50:38;;;;;;;21.60;12.68;;;;;;;;;;4975654;28;20023;-83
2022/11/05 12:53:23;;;;;;;26.15;14.60;;;;;;;;;;4974573;28;20038;-84
2022/11/05 12:55:49;;;;;;;20.15;14.15;;;;;;;;;;4974329;28;20035;-83
2022/11/05 12:58:27;;;;;;;25.85;16.48;;;;;;;;;;4974509;28;20033;-86
2022/11/05 13:00:58;;;;;;;22.95;15.82;;;;;;;;;;4974027;28;20090;-85
2022/11/05 13:03:32;;;;;;;31.17;18.17;;;;;;;;;;4974115;28;20027;-83
2022/11/05 13:06:01;;;;;;;25.35;14.77;;;;;;;;;;4974133;28;20027;-82
2022/11/05 13:08:40;;;;;;;22.70;14.88;;;;;;;;;;4974296;28;20030;-83
2022/11/05 13:11:18;;;;;;;28.13;15.52;;;;;;;;;;4974682;28;20106;-83
2022/11/05 13:13:53;;;;;;;28.98;15.90;;;;;;;;;;4969496;28;20055;-84
2022/11/05 13:16:25;;;;;;;32.03;16.45;;;;;;;;;;4956848;29;20074;-84
2022/11/05 13:18:54;;;;;;;38.97;15.35;;;;;;;;;;4954584;29;20028;-83
2022/11/05 13:21:23;;;;;;;28.58;14.23;;;;;;;;;;4954922;29;20104;-82
2022/11/05 13:23:52;;;;;;;150.23;23.20;;;;;;;;;;4955492;29;20028;-83
2022/11/05 13:26:28;;;;;;;83.97;19.92;;;;;;;;;;4955129;29;20050;-83
2022/11/05 13:29:01;;;;;;;64.70;20.40;;;;;;;;;;4955045;29;20090;-80
2022/11/05 13:31:36;;;;;;;64.07;20.90;;;;;;;;;;4978837;28;20034;-84
2022/11/05 13:34:05;;;;;;;50.17;18.58;;;;;;;;;;4977464;28;20086;-85
2022/11/05 13:39:27;;;;;;;31.75;17.88;;;;;;;;;;4957396;29;20106;-83
2022/11/05 13:42:12;;;;;;;38.72;20.80;;;;;;;;;;4956238;29;20584;-86
2022/11/05 13:44:56;;;;;;;49.70;26.17;;;;;;;;;;4957161;29;20035;-85
2022/11/05 13:47:55;;;;;;;40.10;26.45;;;;;;;;;;4969695;28;20117;-86
2022/11/05 13:50:21;;;;;;;37.03;26.23;;;;;;;;;;4946403;28;20511;-83
2022/11/05 13:52:53;;;;;;;41.97;25.70;;;;;;;;;;4978683;28;20484;-86
2022/11/05 13:55:38;;;;;;;39.58;26.90;;;;;;;;;;4977736;28;20026;-85
2022/11/05 13:58:24;;;;;;;47.88;30.48;;;;;;;;;;4977943;28;20473;-82
2022/11/05 14:01:10;;;;;;;44.65;30.42;;;;;;;;;;4948301;28;20120;-85
2022/11/05 14:03:37;;;;;;;46.42;31.15;;;;;;;;;;4948107;28;20069;-83
2022/11/05 14:06:07;;;;;;;42.67;28.73;;;;;;;;;;4977624;28;20384;-83
2022/11/05 14:08:38;;;;;;;55.30;35.40;;;;;;;;;;4977570;28;20027;-83
2022/11/05 14:11:06;;;;;;;49.65;33.13;;;;;;;;;;4977895;28;20404;-82
2022/11/05 14:13:32;;;;;;;59.75;37.38;;;;;;;;;;4977440;28;20035;-83
2022/11/05 14:16:01;;;;;;;53.75;34.30;;;;;;;;;;4977939;28;20023;-86
2022/11/05 14:18:42;;;;;;;59.50;39.15;;;;;;;;;;4977949;28;20027;-84
2022/11/05 14:21:41;;;;;;;58.60;38.53;;;;;;;;;;4977311;28;20030;-84
2022/11/05 14:24:22;;;;;;;59.38;37.00;;;;;;;;;;4945436;28;20035;-83
2022/11/05 14:27:00;;;;;;;55.92;35.20;;;;;;;;;;4978407;28;20362;-84
2022/11/05 14:29:42;;;;;;;68.03;38.03;;;;;;;;;;4977350;28;20034;-85
2022/11/05 14:32:20;;;;;;;52.33;34.67;;;;;;;;;;4977490;28;20030;-82
2022/11/05 14:35:02;;;;;;;53.75;34.55;;;;;;;;;;4977754;28;20158;-85
2022/11/05 14:37:35;;;;;;;55.20;35.45;;;;;;;;;;4978156;28;20053;-83
2022/11/05 14:40:24;;;;;;;57.75;40.33;;;;;;;;;;4978468;28;20042;-82
2022/11/05 14:42:52;;;;;;;94.65;49.85;;;;;;;;;;4978898;28;20034;-81
2022/11/05 14:45:29;;;;;;;75.35;52.22;;;;;;;;;;4981017;28;20023;-82
2022/11/05 14:47:59;;;;;;;84.88;57.53;;;;;;;;;;4979740;28;20031;-83
2022/11/05 14:50:32;;;;;;;80.60;56.17;;;;;;;;;;4977003;28;20123;-84
2022/11/05 14:52:59;;;;;;;82.57;61.65;;;;;;;;;;4977806;28;20022;-85
2022/11/05 14:55:31;;;;;;;94.53;69.97;;;;;;;;;;4976584;28;20102;-85
2022/11/05 14:57:57;;;;;;;106.93;79.97;;;;;;;;;;4975981;28;20398;-84
2022/11/05 15:00:26;;;;;;;96.10;67.00;;;;;;;;;;4976861;28;20027;-85
2022/11/05 15:02:56;;;;;;;80.25;58.35;;;;;;;;;;4976695;28;20074;-84
2022/11/05 15:05:58;;;;;;;85.70;61.65;;;;;;;;;;4986651;28;20029;-84
2022/11/05 15:08:27;;;;;;;62.22;44.85;;;;;;;;;;4901767;29;20394;-82
2022/11/05 15:10:56;;;;;;;66.88;43.47;;;;;;;;;;4981136;28;20041;-85
2022/11/05 15:13:30;;;;;;;65.60;42.85;;;;;;;;;;4999722;28;20048;-85
2022/11/05 15:15:57;;;;;;;230.07;138.65;;;;;;;;;;4985020;28;20035;-81